Time;durP1;ratioP1;P1;durP2;ratioP2;P2;SDS_P1;SDS_P2;PMS_P1;PMS_P2;Temp;Humidity;BMP_temperature;BMP_pressure;BME280_temperature;BME280_humidity;BME280_pressure;Samples;Min_cycle;Max_cycle;Signal;HPM_P1;HPM_P2
2022/05/05 00:00:10;;;;;;;;;;;;;;;16.64;57.21;101746.50;1032226;28;679;-62
2022/05/05 00:01:01;;;;;;;;;;;;;;;16.64;57.07;101741.13;1033247;28;690;-62
2022/05/05 00:01:51;;;;;;;;;;;;;;;16.64;57.13;101746.50;1033203;28;611;-62
2022/05/05 00:02:42;;;;;;;;;;;;;;;16.62;57.19;101746.59;1032680;28;668;-63
2022/05/05 00:03:32;;;;;;;;;;;;;;;16.62;57.04;101740.34;1033162;28;672;-62
2022/05/05 00:04:22;;;;;;;;;;;;;;;16.61;57.51;101738.63;1033222;28;686;-62
2022/05/05 00:05:13;;;;;;;;;;;;;;;16.61;57.45;101744.03;1033161;28;643;-63
2022/05/05 00:06:03;;;;;;;;;;;;;;;16.61;57.03;101742.19;1032327;28;1971;-62
2022/05/05 00:06:54;;;;;;;;;;;;;;;16.61;57.34;101741.31;1032300;28;647;-62
2022/05/05 00:07:44;;;;;;;;;;;;;;;16.60;57.32;101747.69;1032669;28;741;-62
2022/05/05 00:08:35;;;;;;;;;;;;;;;16.59;57.73;101754.03;1032832;28;662;-62
2022/05/05 00:09:25;;;;;;;;;;;;;;;16.61;57.30;101741.31;1029948;28;679;-61
2022/05/05 00:14:52;;;;;;;;;;;;;;;16.57;57.30;101755.97;1029239;28;686;-63
2022/05/05 00:15:43;;;;;;;;;;;;;;;16.55;57.50;101756.09;1029128;28;627;-63
2022/05/05 00:16:33;;;;;;;;;;;;;;;16.55;57.30;101757.94;1029171;28;722;-63
2022/05/05 00:17:25;;;;;;;;;;;;;;;16.55;57.51;101755.25;1028757;28;635;-63
2022/05/05 00:18:15;;;;;;;;;;;;;;;16.55;57.55;101760.63;1030158;28;645;-63
2022/05/05 00:19:06;;;;;;;;;;;;;;;16.55;57.69;101755.25;1029656;28;642;-63
2022/05/05 00:19:56;;;;;;;;;;;;;;;16.51;57.16;101754.59;1029716;28;647;-63
2022/05/05 00:20:47;;;;;;;;;;;;;;;16.52;57.43;101758.16;1029729;28;816;-63
2022/05/05 00:21:38;;;;;;;;;;;;;;;16.53;57.30;101759.88;1030263;28;634;-63
2022/05/05 00:22:29;;;;;;;;;;;;;;;16.53;57.34;101751.81;1030227;28;727;-63
2022/05/05 00:23:19;;;;;;;;;;;;;;;16.51;57.80;101757.28;1029719;28;663;-63
2022/05/05 00:24:10;;;;;;;;;;;;;;;16.54;57.04;101766.97;1029672;28;644;-63
2022/05/05 00:25:00;;;;;;;;;;;;;;;16.51;57.67;101756.44;1029600;28;639;-63
2022/05/05 00:25:50;;;;;;;;;;;;;;;16.50;57.41;101758.28;1029683;28;631;-63
2022/05/05 00:26:41;;;;;;;;;;;;;;;16.49;57.41;101753.00;1030160;28;667;-63
2022/05/05 00:27:31;;;;;;;;;;;;;;;16.49;57.29;101759.25;1029613;28;659;-63
2022/05/05 00:28:22;;;;;;;;;;;;;;;16.50;57.15;101757.41;1029617;28;606;-63
2022/05/05 00:29:13;;;;;;;;;;;;;;;16.49;57.62;101758.38;1030269;28;769;-64
2022/05/05 00:30:03;;;;;;;;;;;;;;;16.48;56.96;101756.69;1030137;28;686;-63
2022/05/05 00:30:53;;;;;;;;;;;;;;;16.47;57.31;101758.53;1029758;28;682;-63
2022/05/05 00:31:44;;;;;;;;;;;;;;;16.48;57.26;101759.38;1029382;28;690;-63
2022/05/05 00:32:34;;;;;;;;;;;;;;;16.50;57.41;101757.41;1029679;28;718;-63
2022/05/05 00:33:25;;;;;;;;;;;;;;;16.48;57.44;101762.06;1030004;28;705;-63
2022/05/05 00:34:15;;;;;;;;;;;;;;;16.48;57.58;101756.69;1028706;28;631;-62
2022/05/05 00:35:06;;;;;;;;;;;;;;;16.48;56.92;101751.31;1028847;28;717;-63
2022/05/05 00:35:56;;;;;;;;;;;;;;;16.47;57.43;101758.53;1024908;28;619;-63
2022/05/05 00:36:46;;;;;;;;;;;;;;;16.46;57.54;101754.13;1025250;28;705;-63
2022/05/05 00:37:37;;;;;;;;;;;;;;;16.47;57.16;101754.97;1028972;28;607;-63
2022/05/05 00:38:27;;;;;;;;;;;;;;;16.46;57.41;101756.81;1029557;28;634;-63
2022/05/05 00:39:18;;;;;;;;;;;;;;;16.47;57.31;101752.28;1029612;28;658;-63
2022/05/05 00:40:08;;;;;;;;;;;;;;;16.46;57.39;101755.94;1029598;28;713;-63
2022/05/05 00:40:59;;;;;;;;;;;;;;;16.46;57.41;101758.63;1031117;28;675;-63
2022/05/05 00:41:49;;;;;;;;;;;;;;;16.47;57.36;101760.34;1034106;28;720;-63
2022/05/05 00:42:40;;;;;;;;;;;;;;;16.46;57.60;101754.13;1032374;28;769;-63
2022/05/05 00:43:30;;;;;;;;;;;;;;;16.45;57.45;101755.09;1029610;28;607;-62
2022/05/05 00:44:20;;;;;;;;;;;;;;;16.45;57.51;101756.91;1029555;28;709;-63
2022/05/05 00:45:11;;;;;;;;;;;;;;;16.44;57.08;101756.06;1029589;28;619;-63
2022/05/05 00:46:01;;;;;;;;;;;;;;;16.44;57.60;101756.06;1029570;28;1890;-63
2022/05/05 00:46:52;;;;;;;;;;;;;;;16.44;57.54;101758.75;1029634;28;702;-63
2022/05/05 00:47:43;;;;;;;;;;;;;;;16.43;57.10;101754.34;1029626;28;666;-63
2022/05/05 00:48:36;;;;;;;;;;;;;;;16.45;57.18;101751.53;1029590;28;942;-63
2022/05/05 00:49:26;;;;;;;;;;;;;;;16.43;57.33;101751.66;1029635;28;686;-63
2022/05/05 00:50:17;;;;;;;;;;;;;;;16.42;57.58;101746.38;1029609;28;768;-63
2022/05/05 00:51:07;;;;;;;;;;;;;;;16.43;57.38;101753.47;1028682;28;632;-63
2022/05/05 00:51:59;;;;;;;;;;;;;;;16.42;57.38;101747.25;1029669;28;1507;-63
2022/05/05 00:52:50;;;;;;;;;;;;;;;16.44;57.26;101755.19;1029017;28;783;-63
2022/05/05 00:53:40;;;;;;;;;;;;;;;16.44;57.26;101749.81;1032099;28;641;-63
2022/05/05 00:54:30;;;;;;;;;;;;;;;16.46;57.06;101753.25;1032787;28;878;-63
2022/05/05 00:55:21;;;;;;;;;;;;;;;16.44;57.24;101745.31;1029076;28;626;-63
2022/05/05 00:56:14;;;;;;;;;;;;;;;16.45;56.93;101751.53;1028585;28;627;-63
2022/05/05 00:57:05;;;;;;;;;;;;;;;16.45;57.09;101755.09;1028613;28;642;-64
2022/05/05 00:57:55;;;;;;;;;;;;;;;16.47;57.16;101754.97;1028391;28;646;-63
2022/05/05 00:58:46;;;;;;;;;;;;;;;16.46;57.20;101754.13;1028581;28;634;-63
2022/05/05 00:59:36;;;;;;;;;;;;;;;16.47;56.82;101754.97;1027852;28;667;-63
2022/05/05 01:00:26;;;;;;;;;;;;;;;16.47;56.96;101754.97;1028621;28;670;-63
2022/05/05 01:01:17;;;;;;;;;;;;;;;16.47;56.91;101757.66;1028462;28;623;-63
2022/05/05 01:02:07;;;;;;;;;;;;;;;16.44;56.84;101752.50;1027963;28;729;-63
2022/05/05 01:02:58;;;;;;;;;;;;;;;16.43;57.19;101754.34;1027758;28;670;-63
2022/05/05 01:03:48;;;;;;;;;;;;;;;16.42;57.03;101754.44;1025080;29;670;-62
2022/05/05 01:04:38;;;;;;;;;;;;;;;16.43;56.60;101757.03;1025507;28;635;-63
2022/05/05 01:05:29;;;;;;;;;;;;;;;16.42;56.82;101751.75;1025290;28;631;-62
2022/05/05 01:06:19;;;;;;;;;;;;;;;16.42;56.95;101751.75;1025272;28;1890;-66
2022/05/05 01:07:10;;;;;;;;;;;;;;;16.43;57.00;101753.47;1025650;28;529;-62
2022/05/05 01:08:00;;;;;;;;;;;;;;;16.41;56.84;101747.34;1025576;28;733;-62
2022/05/05 01:08:51;;;;;;;;;;;;;;;16.41;57.08;101744.66;1025521;28;642;-62
2022/05/05 01:09:41;;;;;;;;;;;;;;;16.40;56.77;101748.31;1025581;28;613;-63
2022/05/05 01:10:32;;;;;;;;;;;;;;;16.39;56.96;101762.75;1025590;28;678;-63
2022/05/05 01:11:22;;;;;;;;;;;;;;;16.41;56.87;101750.03;1025298;28;654;-62
2022/05/05 01:12:12;;;;;;;;;;;;;;;16.41;56.90;101755.44;1029699;28;653;-63
2022/05/05 01:13:03;;;;;;;;;;;;;;;16.40;57.09;101753.69;1029829;28;617;-62
2022/05/05 01:13:53;;;;;;;;;;;;;;;16.41;56.93;101750.03;1030363;28;768;-63
2022/05/05 01:14:44;;;;;;;;;;;;;;;16.40;57.09;101748.31;1031086;28;638;-63
2022/05/05 01:15:34;;;;;;;;;;;;;;;16.39;57.24;101765.44;1030414;28;723;-63
2022/05/05 01:16:25;;;;;;;;;;;;;;;16.35;57.17;101750.50;1030399;28;637;-63
2022/05/05 01:17:15;;;;;;;;;;;;;;;16.36;56.90;101750.38;1030448;28;673;-63
2022/05/05 01:18:06;;;;;;;;;;;;;;;16.36;57.00;101747.69;1030778;28;626;-63
2022/05/05 01:18:56;;;;;;;;;;;;;;;16.33;57.17;101750.59;1030346;28;709;-63
2022/05/05 01:19:47;;;;;;;;;;;;;;;16.35;57.22;101750.50;1030368;28;717;-63
2022/05/05 01:20:37;;;;;;;;;;;;;;;16.34;57.16;101760.41;1030272;28;678;-62
2022/05/05 01:21:28;;;;;;;;;;;;;;;16.33;57.26;101754.16;1030346;28;940;-63
2022/05/05 01:22:18;;;;;;;;;;;;;;;16.32;57.24;101755.13;1030483;28;662;-62
2022/05/05 01:23:10;;;;;;;;;;;;;;;16.30;57.30;101754.38;1030395;28;634;-63
2022/05/05 01:24:00;;;;;;;;;;;;;;;16.30;57.42;101758.94;1030367;28;674;-63
2022/05/05 01:28:18;;;;;;;;;;;;;;;16.31;57.97;101760.63;1028574;28;616;-63
2022/05/05 01:29:09;;;;;;;;;;;;;;;16.31;57.28;101753.41;1030747;28;642;-63
2022/05/05 01:29:59;;;;;;;;;;;;;;;16.30;57.20;101757.06;1030477;28;615;-63
2022/05/05 01:30:49;;;;;;;;;;;;;;;16.29;57.23;101758.06;1030749;28;666;-63
2022/05/05 01:31:43;;;;;;;;;;;;;;;16.29;56.84;101751.84;1030361;28;674;-63
2022/05/05 01:32:33;;;;;;;;;;;;;;;16.30;57.42;101754.38;1030456;28;651;-64
2022/05/05 01:33:24;;;;;;;;;;;;;;;16.29;57.44;101757.22;1030301;28;631;-63
2022/05/05 01:34:14;;;;;;;;;;;;;;;16.29;57.25;101758.06;1030292;28;619;-63
2022/05/05 01:35:05;;;;;;;;;;;;;;;16.28;57.41;101753.66;1029200;28;690;-63
2022/05/05 01:35:55;;;;;;;;;;;;;;;16.28;57.14;101752.81;1030317;28;670;-63
2022/05/05 01:36:45;;;;;;;;;;;;;;;16.27;57.25;101749.25;1030291;28;706;-63
2022/05/05 01:37:36;;;;;;;;;;;;;;;16.27;57.15;101753.78;1030314;28;611;-62
2022/05/05 01:38:28;;;;;;;;;;;;;;;16.27;57.22;101749.25;1030303;28;655;-61
2022/05/05 01:39:18;;;;;;;;;;;;;;;16.28;57.33;101755.50;1030196;28;714;-62
2022/05/05 01:40:09;;;;;;;;;;;;;;;16.25;57.25;101755.72;1030266;28;682;-62
2022/05/05 01:41:00;;;;;;;;;;;;;;;16.26;57.33;101757.44;1030195;28;856;-62
2022/05/05 01:41:50;;;;;;;;;;;;;;;16.24;57.18;101760.22;1030889;28;777;-62
2022/05/05 01:42:41;;;;;;;;;;;;;;;16.25;57.13;101764.63;1030355;28;627;-61
2022/05/05 01:43:31;;;;;;;;;;;;;;;16.24;57.66;101759.38;1030242;28;640;-61
2022/05/05 01:44:21;;;;;;;;;;;;;;;16.23;57.54;101763.88;1029743;28;636;-62
2022/05/05 01:45:12;;;;;;;;;;;;;;;16.22;57.12;101762.19;1030272;28;690;-61
2022/05/05 01:46:02;;;;;;;;;;;;;;;16.23;57.22;101757.66;1030703;28;1965;-61
2022/05/05 01:46:53;;;;;;;;;;;;;;;16.23;57.38;101757.66;1030400;28;753;-61
2022/05/05 01:47:43;;;;;;;;;;;;;;;16.22;57.25;101759.47;1033949;28;650;-62
2022/05/05 01:48:34;;;;;;;;;;;;;;;16.23;57.09;101758.50;1036707;28;634;-60
2022/05/05 01:49:24;;;;;;;;;;;;;;;16.23;56.99;101760.34;1036003;28;630;-62
2022/05/05 01:50:14;;;;;;;;;;;;;;;16.21;57.04;101755.06;1029726;28;686;-61
2022/05/05 01:51:05;;;;;;;;;;;;;;;16.21;57.04;101752.38;1031296;28;662;-61
2022/05/05 01:51:55;;;;;;;;;;;;;;;16.22;57.08;101751.41;1031243;28;619;-61
2022/05/05 01:52:46;;;;;;;;;;;;;;;16.20;57.27;101755.19;1032121;28;1475;-61
2022/05/05 01:53:36;;;;;;;;;;;;;;;16.19;57.18;101751.63;1031661;28;692;-68
2022/05/05 01:54:26;;;;;;;;;;;;;;;16.18;57.07;101747.22;1030292;28;651;-63
2022/05/05 01:55:17;;;;;;;;;;;;;;;16.18;57.27;101752.59;1033360;28;678;-62
2022/05/05 01:56:07;;;;;;;;;;;;;;;16.19;57.13;101753.47;1033642;28;638;-62
2022/05/05 01:56:58;;;;;;;;;;;;;;;16.18;57.06;101755.28;1030365;28;785;-62
2022/05/05 01:57:48;;;;;;;;;;;;;;;16.18;57.25;101755.28;1030438;28;702;-62
2022/05/05 01:58:40;;;;;;;;;;;;;;;16.18;56.90;101760.69;1030331;28;636;-62
2022/05/05 01:59:33;;;;;;;;;;;;;;;16.17;57.30;101753.56;1034328;28;686;-63
2022/05/05 02:00:24;;;;;;;;;;;;;;;16.18;57.00;101757.13;1033560;28;662;-63
2022/05/05 02:01:14;;;;;;;;;;;;;;;16.18;57.17;101752.59;1029538;28;697;-62
2022/05/05 02:02:04;;;;;;;;;;;;;;;16.22;57.14;101764.00;1029317;28;737;-62
2022/05/05 02:02:55;;;;;;;;;;;;;;;16.21;57.21;101754.22;1032969;28;690;-62
2022/05/05 02:03:46;;;;;;;;;;;;;;;16.22;56.63;101754.09;1033767;28;697;-63
2022/05/05 02:04:36;;;;;;;;;;;;;;;16.22;57.05;101750.56;1029641;28;638;-63
2022/05/05 02:05:26;;;;;;;;;;;;;;;16.21;56.85;101757.75;1029298;28;639;-64
2022/05/05 02:06:17;;;;;;;;;;;;;;;16.23;56.81;101761.19;1028352;28;1898;-62
2022/05/05 02:07:07;;;;;;;;;;;;;;;16.23;56.91;101754.97;1029037;28;666;-62
2022/05/05 02:07:58;;;;;;;;;;;;;;;16.21;56.83;101755.06;1035455;28;643;-59
2022/05/05 02:08:49;;;;;;;;;;;;;;;16.20;56.70;101758.72;1032162;28;638;-61
2022/05/05 02:09:40;;;;;;;;;;;;;;;16.19;56.79;101767.78;1026047;28;636;-63
2022/05/05 02:10:30;;;;;;;;;;;;;;;16.20;56.77;101764.13;1031680;28;666;-63
2022/05/05 02:11:21;;;;;;;;;;;;;;;16.22;56.76;101766.69;1029723;28;658;-63
2022/05/05 02:12:11;;;;;;;;;;;;;;;16.22;57.07;101759.47;1029186;28;635;-63
2022/05/05 02:13:02;;;;;;;;;;;;;;;16.21;56.90;101762.28;1025810;29;667;-63
2022/05/05 02:13:52;;;;;;;;;;;;;;;16.21;56.77;101762.28;1026252;28;658;-64
2022/05/05 02:14:42;;;;;;;;;;;;;;;16.21;56.90;101765.84;1025773;28;663;-63
2022/05/05 02:15:34;;;;;;;;;;;;;;;16.21;57.16;101764.97;1025955;28;640;-62
2022/05/05 02:16:25;;;;;;;;;;;;;;;16.19;57.23;101766.91;1026105;28;654;-62
2022/05/05 02:17:15;;;;;;;;;;;;;;;16.19;57.17;101767.78;1025541;28;670;-62
2022/05/05 02:18:05;;;;;;;;;;;;;;;16.18;57.11;101763.38;1025144;29;706;-62
2022/05/05 02:18:56;;;;;;;;;;;;;;;16.19;56.88;101772.28;1033304;28;674;-63
2022/05/05 02:19:46;;;;;;;;;;;;;;;16.16;57.11;101768.00;1033305;28;682;-63
2022/05/05 02:20:37;;;;;;;;;;;;;;;16.18;57.05;101767.88;1026392;28;619;-63
2022/05/05 02:21:27;;;;;;;;;;;;;;;16.14;57.34;101761.88;1025071;29;635;-63
2022/05/05 02:22:18;;;;;;;;;;;;;;;16.13;57.42;101756.59;1025007;29;624;-63
2022/05/05 02:23:09;;;;;;;;;;;;;;;16.12;57.02;101761.13;1025070;28;674;-62
2022/05/05 02:23:59;;;;;;;;;;;;;;;16.13;56.99;101761.97;1025037;29;690;-63
2022/05/05 02:24:49;;;;;;;;;;;;;;;16.14;57.12;101763.69;1033405;28;722;-62
2022/05/05 02:25:40;;;;;;;;;;;;;;;16.16;56.99;101767.13;1033847;28;662;-63
2022/05/05 02:26:30;;;;;;;;;;;;;;;16.15;56.96;101766.28;1026129;28;1911;-63
2022/05/05 02:27:21;;;;;;;;;;;;;;;16.15;56.89;101762.72;1025013;29;620;-62
2022/05/05 02:28:11;;;;;;;;;;;;;;;16.16;56.90;101768.00;1025532;28;626;-62
2022/05/05 02:29:02;;;;;;;;;;;;;;;16.17;56.97;101760.78;1025165;29;718;-63
2022/05/05 02:29:52;;;;;;;;;;;;;;;16.18;57.00;101763.38;1025589;28;655;-63
2022/05/05 02:30:43;;;;;;;;;;;;;;;16.15;56.61;101763.59;1025600;28;654;-63
2022/05/05 02:31:33;;;;;;;;;;;;;;;16.14;56.99;101767.25;1025460;28;628;-62
2022/05/05 02:32:24;;;;;;;;;;;;;;;16.15;57.06;101766.28;1025474;28;1610;-62
2022/05/05 02:33:14;;;;;;;;;;;;;;;16.15;56.63;101763.59;1029244;28;591;-63
2022/05/05 02:34:08;;;;;;;;;;;;;;;16.14;56.57;101769.94;1028754;28;690;-62
2022/05/05 02:34:59;;;;;;;;;;;;;;;16.14;56.69;101767.25;1029824;28;681;-63
2022/05/05 02:38:42;;;;;;;;;;;;;;;16.14;56.62;101764.56;1030155;28;626;-62
2022/05/05 02:39:18;;;;;;;;;;;;;;;16.12;56.71;101765.66;1028365;28;623;-62
2022/05/05 02:40:09;;;;;;;;;;;;;;;16.13;56.94;101759.28;1029620;28;666;-63
2022/05/05 02:41:01;;;;;;;;;;;;;;;16.11;57.07;101755.88;1028707;28;1688;-62
2022/05/05 02:41:52;;;;;;;;;;;;;;;16.08;57.07;101756.97;1030042;28;627;-62
2022/05/05 02:42:42;;;;;;;;;;;;;;;16.08;57.25;101758.78;1030094;28;720;-62
2022/05/05 02:43:33;;;;;;;;;;;;;;;16.09;57.16;101761.38;1028956;28;615;-62
2022/05/05 02:44:23;;;;;;;;;;;;;;;16.10;57.08;101756.84;1028870;28;675;-61
2022/05/05 02:45:14;;;;;;;;;;;;;;;16.13;57.46;101756.59;1028966;28;675;-61
2022/05/05 02:46:04;;;;;;;;;;;;;;;16.16;56.99;101761.75;1028874;28;1945;-62
2022/05/05 02:46:55;;;;;;;;;;;;;;;16.15;57.14;101760.91;1029030;28;721;-62
2022/05/05 02:47:47;;;;;;;;;;;;;;;16.15;57.09;101758.22;1027757;28;599;-62
2022/05/05 02:48:37;;;;;;;;;;;;;;;16.15;56.95;101760.91;1029429;28;629;-62
2022/05/05 02:49:28;;;;;;;;;;;;;;;16.13;57.14;101757.47;1029110;28;741;-62
2022/05/05 02:50:18;;;;;;;;;;;;;;;16.13;57.13;101761.97;1029182;28;607;-61
2022/05/05 02:51:08;;;;;;;;;;;;;;;16.10;57.07;101755.03;1026080;28;661;-61
2022/05/05 02:51:59;;;;;;;;;;;;;;;16.10;57.08;101759.53;1025976;28;678;-61
2022/05/05 02:52:49;;;;;;;;;;;;;;;16.09;57.16;101749.75;1026152;28;655;-62
2022/05/05 02:54:53;;;;;;;;;;;;;;;16.06;57.26;101764.28;1025984;28;634;-62
2022/05/05 02:55:43;;;;;;;;;;;;;;;16.06;57.18;101764.28;1024870;29;631;-62
2022/05/05 02:56:33;;;;;;;;;;;;;;;16.07;57.09;101757.94;1025484;28;658;-62
2022/05/05 02:57:24;;;;;;;;;;;;;;;16.07;57.40;101759.75;1026096;28;745;-62
2022/05/05 02:58:14;;;;;;;;;;;;;;;16.07;57.13;101752.56;1026015;28;678;-62
2022/05/05 02:59:05;;;;;;;;;;;;;;;16.05;57.13;101757.19;1029758;28;618;-62
2022/05/05 02:59:55;;;;;;;;;;;;;;;16.09;57.04;101756.00;1030268;28;640;-62
2022/05/05 03:00:46;;;;;;;;;;;;;;;16.05;56.95;101765.25;1026055;28;682;-62
2022/05/05 03:01:36;;;;;;;;;;;;;;;16.03;57.31;101761.81;1026333;28;607;-63
2022/05/05 03:02:26;;;;;;;;;;;;;;;16.05;56.94;101759.00;1026411;28;740;-62
2022/05/05 03:03:17;;;;;;;;;;;;;;;16.06;56.72;101760.72;1028429;29;650;-62
2022/05/05 03:04:07;;;;;;;;;;;;;;;16.05;56.90;101759.88;1030539;28;738;-63
2022/05/05 03:04:58;;;;;;;;;;;;;;;16.06;57.12;101760.72;1026339;29;624;-62
2022/05/05 03:05:48;;;;;;;;;;;;;;;16.07;57.14;101759.75;1027244;28;717;-62
2022/05/05 03:06:39;;;;;;;;;;;;;;;16.05;56.95;101759.88;1025456;28;682;-62
2022/05/05 03:07:29;;;;;;;;;;;;;;;16.04;56.87;101760.84;1025453;29;623;-62
2022/05/05 03:08:20;;;;;;;;;;;;;;;16.05;56.88;101762.56;1025531;29;635;-62
2022/05/05 03:09:10;;;;;;;;;;;;;;;16.04;56.79;101763.53;1026107;28;651;-62
2022/05/05 03:10:01;;;;;;;;;;;;;;;16.04;56.84;101758.16;1025598;29;666;-62
2022/05/05 03:10:51;;;;;;;;;;;;;;;16.02;56.73;101760.09;1029173;28;1571;-61
2022/05/05 03:11:41;;;;;;;;;;;;;;;16.06;56.77;101763.41;1028785;28;628;-62
2022/05/05 03:12:32;;;;;;;;;;;;;;;16.03;56.63;101761.81;1029405;28;635;-62
2022/05/05 03:13:22;;;;;;;;;;;;;;;16.03;56.97;101763.63;1028749;28;738;-62
2022/05/05 03:14:13;;;;;;;;;;;;;;;16.01;56.81;101763.75;1028907;28;717;-62
2022/05/05 03:15:04;;;;;;;;;;;;;;;16.01;57.07;101760.19;1029963;28;622;-62
2022/05/05 03:15:54;;;;;;;;;;;;;;;16.02;56.81;101765.47;1028815;28;639;-62
2022/05/05 03:16:45;;;;;;;;;;;;;;;15.99;57.04;101765.69;1029952;28;1251;-62
2022/05/05 03:17:35;;;;;;;;;;;;;;;15.99;56.72;101768.38;1033385;28;635;-62
2022/05/05 03:18:25;;;;;;;;;;;;;;;16.00;57.03;101763.84;1033328;28;642;-62
2022/05/05 03:19:16;;;;;;;;;;;;;;;16.00;57.13;101764.72;1033379;28;706;-62
2022/05/05 03:20:06;;;;;;;;;;;;;;;16.00;56.71;101767.41;1033456;28;647;-62
2022/05/05 03:20:57;;;;;;;;;;;;;;;16.01;57.03;101771.81;1033335;28;686;-62
2022/05/05 03:21:47;;;;;;;;;;;;;;;15.99;57.23;101768.38;1032786;28;778;-62
2022/05/05 03:22:37;;;;;;;;;;;;;;;15.98;56.97;101770.19;1032625;28;734;-62
2022/05/05 03:23:28;;;;;;;;;;;;;;;15.98;56.92;101763.97;1032388;28;674;-62
2022/05/05 03:24:18;;;;;;;;;;;;;;;15.98;56.91;101759.44;1032768;28;710;-62
2022/05/05 03:25:09;;;;;;;;;;;;;;;15.98;57.20;101762.13;1033316;28;646;-62
2022/05/05 03:25:59;;;;;;;;;;;;;;;15.98;56.96;101758.59;1032950;28;697;-62
2022/05/05 03:26:50;;;;;;;;;;;;;;;15.97;57.19;101762.25;1033454;28;709;-62
2022/05/05 03:27:40;;;;;;;;;;;;;;;15.99;56.98;101765.69;1033239;28;694;-63
2022/05/05 03:28:30;;;;;;;;;;;;;;;15.98;56.75;101759.44;1033337;28;635;-63
2022/05/05 03:29:21;;;;;;;;;;;;;;;16.00;56.64;101762.03;1033318;28;686;-62
2022/05/05 03:30:11;;;;;;;;;;;;;;;15.98;56.77;101764.81;1033140;28;1614;-62
2022/05/05 03:31:02;;;;;;;;;;;;;;;15.98;57.00;101764.81;1032788;28;733;-63
2022/05/05 03:31:53;;;;;;;;;;;;;;;15.98;56.94;101769.34;1033305;28;771;-63
2022/05/05 03:32:43;;;;;;;;;;;;;;;15.96;56.98;101760.53;1033309;28;638;-62
2022/05/05 03:33:36;;;;;;;;;;;;;;;15.97;56.92;101763.09;1033890;28;633;-63
2022/05/05 03:34:26;;;;;;;;;;;;;;;15.97;56.98;101762.25;1033250;28;619;-62
2022/05/05 03:35:17;;;;;;;;;;;;;;;15.98;57.09;101769.34;1033362;28;713;-62
2022/05/05 03:36:07;;;;;;;;;;;;;;;15.96;57.17;101776.66;1033337;28;658;-63
2022/05/05 03:36:58;;;;;;;;;;;;;;;15.95;56.94;101772.25;1033834;28;729;-63
2022/05/05 03:37:48;;;;;;;;;;;;;;;15.94;56.72;101775.94;1033819;28;646;-62
2022/05/05 03:38:39;;;;;;;;;;;;;;;15.95;56.82;101777.63;1033774;28;651;-63
2022/05/05 03:39:29;;;;;;;;;;;;;;;15.94;56.93;101771.38;1033899;28;647;-63
2022/05/05 03:40:20;;;;;;;;;;;;;;;15.96;57.24;101779.34;1033337;28;666;-62
2022/05/05 03:41:10;;;;;;;;;;;;;;;15.95;57.28;101777.63;1033885;28;615;-62
2022/05/05 03:42:01;;;;;;;;;;;;;;;15.95;56.93;101772.25;1033906;28;646;-62
2022/05/05 03:42:51;;;;;;;;;;;;;;;15.95;56.98;101775.78;1032712;28;675;-62
2022/05/05 03:43:41;;;;;;;;;;;;;;;15.95;57.06;101778.47;1033785;28;675;-62
2022/05/05 03:44:32;;;;;;;;;;;;;;;15.95;56.99;101780.31;1033663;28;697;-62
2022/05/05 03:45:22;;;;;;;;;;;;;;;15.94;56.90;101778.63;1033813;28;643;-62
2022/05/05 03:46:15;;;;;;;;;;;;;;;15.95;56.99;101780.31;1032708;28;1965;-62
2022/05/05 03:47:06;;;;;;;;;;;;;;;15.95;57.21;101774.94;1036479;28;687;-62
2022/05/05 03:47:56;;;;;;;;;;;;;;;15.92;57.10;101776.03;1036998;28;642;-63
2022/05/05 03:48:47;;;;;;;;;;;;;;;15.93;57.05;101782.28;1032559;28;1767;-63
2022/05/05 03:49:37;;;;;;;;;;;;;;;15.93;56.95;101780.44;1033274;28;691;-63
2022/05/05 03:50:28;;;;;;;;;;;;;;;15.92;57.32;101781.41;1032356;28;655;-63
2022/05/05 03:51:18;;;;;;;;;;;;;;;15.93;56.98;101782.28;1030088;28;626;-62
2022/05/05 03:52:09;;;;;;;;;;;;;;;15.93;56.85;101777.75;1029820;28;638;-63
2022/05/05 03:52:59;;;;;;;;;;;;;;;15.93;56.97;101783.16;1029793;28;678;-62
2022/05/05 03:53:50;;;;;;;;;;;;;;;15.94;57.08;101781.31;1029298;28;667;-63
2022/05/05 03:54:41;;;;;;;;;;;;;;;15.92;57.32;101783.25;1029334;28;631;-63
2022/05/05 03:55:31;;;;;;;;;;;;;;;15.92;56.97;101783.25;1029149;28;631;-63
2022/05/05 03:56:22;;;;;;;;;;;;;;;15.93;57.01;101784.97;1029188;28;665;-63
2022/05/05 03:57:12;;;;;;;;;;;;;;;15.91;57.35;101789.59;1032973;28;1660;-62
2022/05/05 03:58:03;;;;;;;;;;;;;;;15.90;57.26;101779.81;1033281;28;651;-62
2022/05/05 03:58:53;;;;;;;;;;;;;;;15.90;57.21;101775.28;1032944;28;1574;-62
2022/05/05 03:59:43;;;;;;;;;;;;;;;15.89;56.96;101783.47;1033152;28;643;-63
2022/05/05 04:00:34;;;;;;;;;;;;;;;15.91;56.96;101786.91;1033124;28;619;-63
2022/05/05 04:01:24;;;;;;;;;;;;;;;15.93;56.74;101782.28;1033321;28;686;-62
2022/05/05 04:02:15;;;;;;;;;;;;;;;15.96;57.07;101779.34;1033221;28;650;-62
2022/05/05 04:04:15;;;;;;;;;;;;;;;15.97;56.47;101786.44;1032687;28;635;-63
2022/05/05 04:05:06;;;;;;;;;;;;;;;15.96;56.53;101782.91;1033637;28;717;-62
2022/05/05 04:05:56;;;;;;;;;;;;;;;15.95;56.75;101780.31;1032011;28;722;-62
2022/05/05 04:06:47;;;;;;;;;;;;;;;15.95;56.48;101783.00;1032605;28;698;-62
2022/05/05 04:07:37;;;;;;;;;;;;;;;15.96;56.86;101785.59;1032626;28;667;-62
2022/05/05 04:08:28;;;;;;;;;;;;;;;15.95;56.78;101783.84;1033075;28;1690;-62
2022/05/05 04:09:18;;;;;;;;;;;;;;;15.96;57.17;101790.09;1032680;28;698;-62
2022/05/05 04:10:09;;;;;;;;;;;;;;;15.95;57.48;101788.38;1033308;28;717;-62
2022/05/05 04:10:59;;;;;;;;;;;;;;;15.90;57.36;101788.72;1033163;28;631;-62
2022/05/05 04:11:49;;;;;;;;;;;;;;;15.91;56.90;101789.59;1032272;28;686;-62
2022/05/05 04:12:40;;;;;;;;;;;;;;;15.87;57.34;101794.31;1032353;28;694;-62
2022/05/05 04:13:30;;;;;;;;;;;;;;;15.79;57.85;101790.47;1032479;28;750;-62
2022/05/05 04:14:21;;;;;;;;;;;;;;;15.79;57.77;101787.78;1033370;28;670;-62
2022/05/05 04:15:11;;;;;;;;;;;;;;;15.73;58.15;101786.41;1034002;28;1665;-62
2022/05/05 04:16:02;;;;;;;;;;;;;;;15.67;58.15;101784.16;1036836;28;729;-62
2022/05/05 04:16:52;;;;;;;;;;;;;;;15.65;58.01;101787.91;1034675;28;1128;-62
2022/05/05 04:17:43;;;;;;;;;;;;;;;15.61;58.69;101785.44;1037340;28;701;-62
2022/05/05 04:18:35;;;;;;;;;;;;;;;15.60;58.45;101786.41;1037057;28;616;-62
2022/05/05 04:19:25;;;;;;;;;;;;;;;15.60;58.11;101786.41;1033171;28;650;-62
2022/05/05 04:20:15;;;;;;;;;;;;;;;15.63;58.01;101786.19;1033717;28;623;-62
2022/05/05 04:21:06;;;;;;;;;;;;;;;15.66;57.91;101786.94;1033735;28;662;-62
2022/05/05 04:21:56;;;;;;;;;;;;;;;15.67;57.78;101784.16;1032479;28;599;-62
2022/05/05 04:22:47;;;;;;;;;;;;;;;15.68;57.97;101788.56;1032612;28;702;-62
2022/05/05 04:23:37;;;;;;;;;;;;;;;15.67;57.92;101783.28;1033157;28;1664;-62
2022/05/05 04:24:28;;;;;;;;;;;;;;;15.66;58.09;101790.47;1033148;28;605;-62
2022/05/05 04:25:18;;;;;;;;;;;;;;;15.67;57.82;101786.81;1032583;28;645;-62
2022/05/05 04:26:08;;;;;;;;;;;;;;;15.67;58.01;101791.34;1033497;28;1914;-62
2022/05/05 04:26:59;;;;;;;;;;;;;;;15.66;58.08;101790.47;1033178;28;651;-62
2022/05/05 04:27:49;;;;;;;;;;;;;;;15.67;57.99;101786.81;1033685;28;622;-62
2022/05/05 04:28:40;;;;;;;;;;;;;;;15.67;58.13;101791.34;1033670;28;646;-62
2022/05/05 04:29:30;;;;;;;;;;;;;;;15.68;57.97;101793.91;1032532;28;677;-62
2022/05/05 04:30:21;;;;;;;;;;;;;;;15.69;57.86;101792.09;1033637;28;733;-62
2022/05/05 04:31:12;;;;;;;;;;;;;;;15.71;57.52;101795.53;1033090;28;666;-62
2022/05/05 04:32:02;;;;;;;;;;;;;;;15.77;57.65;101797.75;1033676;28;712;-61
2022/05/05 04:32:53;;;;;;;;;;;;;;;15.79;57.62;101791.31;1033657;28;701;-62
2022/05/05 04:33:43;;;;;;;;;;;;;;;15.89;57.91;101800.47;1033501;28;662;-62
2022/05/05 04:34:33;;;;;;;;;;;;;;;15.89;57.37;101804.97;1032421;28;626;-62
2022/05/05 04:35:24;;;;;;;;;;;;;;;15.85;57.26;101801.63;1033725;28;658;-62
2022/05/05 04:36:14;;;;;;;;;;;;;;;15.83;57.70;101797.34;1031856;28;726;-62
2022/05/05 04:37:05;;;;;;;;;;;;;;;15.80;57.43;101803.78;1033162;28;732;-62
2022/05/05 04:37:55;;;;;;;;;;;;;;;15.77;57.83;101800.44;1033034;28;630;-62
2022/05/05 04:38:46;;;;;;;;;;;;;;;15.74;57.44;101803.38;1033043;28;674;-62